createdAt,value
2023-02-14T00:01:31.015Z,103025.97
2023-02-14T00:04:01.583Z,103032.00
2023-02-14T00:06:32.651Z,103027.66
2023-02-14T00:09:01.165Z,103033.91
2023-02-14T00:11:30.315Z,103029.00
2023-02-14T00:14:17.251Z,103031.16
2023-02-14T00:16:45.289Z,103031.69
2023-02-14T00:19:15.791Z,103029.91
2023-02-14T00:21:43.834Z,103032.13
2023-02-14T00:24:13.547Z,103026.44
2023-02-14T00:26:42.183Z,103029.72
2023-02-14T00:29:13.448Z,103026.81
2023-02-14T00:31:42.284Z,103031.47
2023-02-14T00:34:11.031Z,103029.56
2023-02-14T00:36:39.454Z,103032.44
2023-02-14T00:39:08.357Z,103028.16
2023-02-14T00:41:38.868Z,103031.16
2023-02-14T00:44:07.842Z,103036.63
2023-02-14T00:46:37.035Z,103033.00
2023-02-14T00:49:05.064Z,103033.59
2023-02-14T00:51:33.240Z,103045.19
2023-02-14T00:54:03.478Z,103033.72
2023-02-14T00:56:32.169Z,103043.34
2023-02-14T00:58:59.988Z,103042.16
2023-02-14T01:01:28.558Z,103039.97
2023-02-14T01:03:58.899Z,103044.78
2023-02-14T01:06:27.072Z,103037.50
2023-02-14T01:08:54.980Z,103039.16
2023-02-14T01:11:24.758Z,103039.22
2023-02-14T01:13:56.250Z,103042.16
2023-02-14T01:16:26.668Z,103038.75
2023-02-14T01:18:59.531Z,103032.94
2023-02-14T01:21:29.157Z,103034.81
2023-02-14T01:23:59.304Z,103028.94
2023-02-14T01:26:29.328Z,103037.09
2023-02-14T01:28:57.681Z,103033.81
2023-02-14T01:31:27.481Z,103042.31
2023-02-14T01:34:00.039Z,103032.41
2023-02-14T01:36:32.332Z,103030.66
2023-02-14T01:39:02.430Z,103032.97
2023-02-14T01:41:32.893Z,103033.66
2023-02-14T01:44:03.657Z,103030.63
2023-02-14T01:46:33.317Z,103034.50
2023-02-14T01:49:07.717Z,103039.47
2023-02-14T01:51:39.534Z,103035.69
2023-02-14T01:54:10.239Z,103032.72
2023-02-14T01:56:41.597Z,103037.88
2023-02-14T01:59:14.095Z,103029.97
2023-02-14T02:01:45.134Z,103022.72
2023-02-14T02:04:19.005Z,103030.69
2023-02-14T02:06:49.815Z,103026.50
2023-02-14T02:09:22.724Z,103020.13
2023-02-14T02:11:50.767Z,103016.28
2023-02-14T02:14:22.823Z,103016.22
2023-02-14T02:17:13.490Z,103005.97
2023-02-14T02:20:12.455Z,103003.38
2023-02-14T02:23:11.321Z,103008.84
2023-02-14T02:25:53.215Z,103008.38
2023-02-14T02:28:54.639Z,103005.28
2023-02-14T02:31:38.968Z,103005.03
2023-02-14T02:34:45.322Z,102995.59
2023-02-14T02:37:30.856Z,102985.34
2023-02-14T02:40:12.047Z,102976.16
2023-02-14T02:42:49.942Z,102976.69
2023-02-14T02:45:27.037Z,102966.44
2023-02-14T02:48:04.204Z,102971.22
2023-02-14T02:50:52.737Z,102968.63
2023-02-14T02:53:29.028Z,102966.91
2023-02-14T02:56:18.356Z,102957.75
2023-02-14T02:58:49.941Z,102961.41
2023-02-14T03:01:22.568Z,102965.00
2023-02-14T03:04:14.989Z,102965.09
2023-02-14T03:06:42.836Z,102962.78
2023-02-14T03:09:14.246Z,102964.38
2023-02-14T03:11:50.070Z,102959.22
2023-02-14T03:14:25.618Z,102959.16
2023-02-14T03:17:05.650Z,102963.22
2023-02-14T03:20:15.076Z,102963.88
2023-02-14T03:22:50.702Z,102963.00
2023-02-14T03:25:34.844Z,102958.97
2023-02-14T03:28:13.256Z,102968.75
2023-02-14T03:30:51.092Z,102952.97
2023-02-14T03:33:24.224Z,102957.69
2023-02-14T03:36:01.873Z,102958.69
2023-02-14T03:38:37.514Z,102959.66
2023-02-14T03:41:12.826Z,102954.84
2023-02-14T03:43:46.173Z,102958.28
2023-02-14T03:46:19.884Z,102961.00
2023-02-14T03:48:49.598Z,102948.75
2023-02-14T03:51:19.470Z,102950.06
2023-02-14T03:53:51.062Z,102948.16
2023-02-14T03:56:27.430Z,102950.16
2023-02-14T03:58:59.479Z,102940.94
2023-02-14T04:01:32.180Z,102943.09
2023-02-14T04:04:01.935Z,102938.44
2023-02-14T04:06:29.740Z,102938.28
2023-02-14T04:08:57.516Z,102941.28
2023-02-14T04:11:26.786Z,102933.75
2023-02-14T04:13:54.544Z,102937.13
2023-02-14T04:16:22.381Z,102943.91
2023-02-14T04:19:07.743Z,102932.25
2023-02-14T04:21:35.594Z,102933.03
2023-02-14T04:24:03.382Z,102933.69
2023-02-14T04:26:32.589Z,102932.72
2023-02-14T04:29:00.418Z,102930.13
2023-02-14T04:31:28.393Z,102927.53
2023-02-14T04:33:56.284Z,102936.59
2023-02-14T04:36:24.137Z,102933.13
2023-02-14T04:38:51.899Z,102922.38
2023-02-14T04:41:19.700Z,102926.03
2023-02-14T04:43:48.849Z,102926.84
2023-02-14T04:46:16.735Z,102929.13
2023-02-14T04:48:44.580Z,102914.81
2023-02-14T04:51:12.526Z,102924.94
2023-02-14T04:53:40.637Z,102925.06
2023-02-14T04:56:08.911Z,102915.22
2023-02-14T04:58:37.014Z,102919.81
2023-02-14T05:01:06.285Z,102931.84
2023-02-14T05:03:34.323Z,102922.94
2023-02-14T05:06:02.141Z,102923.41
2023-02-14T05:08:31.120Z,102938.59
2023-02-14T05:10:59.538Z,102930.56
2023-02-14T05:13:28.513Z,102923.59
2023-02-14T05:15:56.566Z,102930.50
2023-02-14T05:18:26.135Z,102926.38
2023-02-14T05:20:56.086Z,102922.09
2023-02-14T05:23:24.367Z,102921.13
2023-02-14T05:25:53.199Z,102916.91
2023-02-14T05:28:21.327Z,102909.53
2023-02-14T05:30:50.999Z,102907.50
2023-02-14T05:33:27.197Z,102910.63
2023-02-14T05:35:55.086Z,102908.47
2023-02-14T05:38:22.874Z,102904.66
2023-02-14T05:40:50.882Z,102906.69
2023-02-14T05:43:18.796Z,102910.38
2023-02-14T05:45:46.667Z,102917.88
2023-02-14T05:48:14.477Z,102923.41
2023-02-14T05:50:45.138Z,102925.66
2023-02-14T05:53:13.586Z,102916.59
2023-02-14T05:55:41.961Z,102925.44
2023-02-14T05:58:10.118Z,102917.91
2023-02-14T06:00:40.692Z,102923.13
2023-02-14T06:03:09.719Z,102911.47
2023-02-14T06:05:37.656Z,102918.25
2023-02-14T06:08:06.799Z,102919.81
2023-02-14T06:10:34.569Z,102905.56
2023-02-14T06:13:02.465Z,102925.59
2023-02-14T06:15:30.277Z,102915.25
2023-02-14T06:17:58.846Z,102914.44
2023-02-14T06:20:27.452Z,102906.38
2023-02-14T06:22:55.378Z,102912.06
2023-02-14T06:25:25.316Z,102910.88
2023-02-14T06:27:57.231Z,102913.38
2023-02-14T06:30:25.849Z,102915.28
2023-02-14T06:32:53.962Z,102919.13
2023-02-14T06:35:21.956Z,102926.59
2023-02-14T06:37:49.983Z,102927.31
2023-02-14T06:40:19.653Z,102930.97
2023-02-14T06:42:48.860Z,102925.88
2023-02-14T06:45:16.935Z,102937.53
2023-02-14T06:47:45.984Z,102942.31
2023-02-14T06:50:14.003Z,102950.25
2023-02-14T06:52:42.115Z,102927.06
2023-02-14T06:55:11.747Z,102932.44
2023-02-14T06:57:40.208Z,102926.75
2023-02-14T07:00:11.217Z,102922.31
2023-02-14T07:02:44.988Z,102926.50
2023-02-14T07:05:12.912Z,102925.06
2023-02-14T07:07:40.899Z,102930.66
2023-02-14T07:10:09.514Z,102925.81
2023-02-14T07:12:39.499Z,102924.06
2023-02-14T07:15:09.727Z,102920.19
2023-02-14T07:17:37.890Z,102931.28
2023-02-14T07:20:06.942Z,102917.59
2023-02-14T07:22:35.378Z,102923.97
2023-02-14T07:25:04.375Z,102932.94
2023-02-14T07:27:32.186Z,102928.09
2023-02-14T07:30:00.323Z,102926.50
2023-02-14T07:32:29.637Z,102926.25
2023-02-14T07:34:57.535Z,102932.31
2023-02-14T07:37:25.528Z,102924.38
2023-02-14T07:39:53.530Z,102924.31
2023-02-14T07:42:21.366Z,102933.25
2023-02-14T07:44:49.628Z,102924.44
2023-02-14T07:47:17.579Z,102921.28
2023-02-14T07:49:46.920Z,102915.44
2023-02-14T07:52:14.786Z,102923.81
2023-02-14T07:54:42.753Z,102914.25
2023-02-14T07:57:10.717Z,102915.06
2023-02-14T07:59:38.591Z,102913.97
2023-02-14T08:02:06.439Z,102918.34
2023-02-14T08:04:34.322Z,102918.16
2023-02-14T08:07:03.716Z,102925.03
2023-02-14T08:09:31.708Z,102921.59
2023-02-14T08:12:17.360Z,102927.31
2023-02-14T08:14:45.660Z,102930.44
2023-02-14T08:17:14.353Z,102931.94
2023-02-14T08:19:42.247Z,102936.66
2023-02-14T08:22:11.522Z,102943.63
2023-02-14T08:24:39.306Z,102937.59
2023-02-14T08:27:07.157Z,102939.09
2023-02-14T08:29:35.024Z,102942.75
2023-02-14T08:32:03.200Z,102935.97
2023-02-14T08:34:31.088Z,102934.84
2023-02-14T08:36:59.050Z,102936.75
2023-02-14T08:39:28.276Z,102942.56
2023-02-14T08:41:56.137Z,102942.56
2023-02-14T08:44:24.297Z,102936.72
2023-02-14T08:46:52.164Z,102926.38
2023-02-14T08:49:20.061Z,102930.03
2023-02-14T08:51:47.874Z,102926.72
2023-02-14T08:54:15.918Z,102923.06
2023-02-14T08:56:45.204Z,102945.06
2023-02-14T08:59:13.073Z,102937.81
2023-02-14T09:01:40.826Z,102935.41
2023-02-14T09:04:08.888Z,102925.72
2023-02-14T09:06:39.514Z,102926.28
2023-02-14T09:09:08.012Z,102928.19
2023-02-14T09:11:36.519Z,102920.56
2023-02-14T09:14:05.689Z,102918.16
2023-02-14T09:16:33.573Z,102926.47
2023-02-14T09:19:01.434Z,102924.00
2023-02-14T09:21:30.472Z,102930.44
2023-02-14T09:23:58.635Z,102929.81
2023-02-14T09:26:26.436Z,102938.44
2023-02-14T09:28:54.256Z,102934.56
2023-02-14T09:31:25.816Z,102932.91
2023-02-14T09:33:53.749Z,102936.53
2023-02-14T09:36:39.097Z,102932.31
2023-02-14T09:39:06.909Z,102927.44
2023-02-14T09:42:08.807Z,102929.88
2023-02-14T09:44:42.289Z,102917.19
2023-02-14T09:47:21.795Z,102925.25
2023-02-14T09:49:51.803Z,102919.66
2023-02-14T09:52:22.482Z,102923.13
2023-02-14T09:54:57.528Z,102923.69
2023-02-14T09:57:33.339Z,102921.59
2023-02-14T10:00:07.585Z,102918.03
2023-02-14T10:02:45.889Z,102921.00
2023-02-14T10:05:18.816Z,102916.72
2023-02-14T10:07:58.474Z,102916.25
2023-02-14T10:10:32.721Z,102915.06
2023-02-14T10:13:07.578Z,102917.63
2023-02-14T10:15:40.989Z,102914.44
2023-02-14T10:18:14.738Z,102919.41
2023-02-14T10:20:44.729Z,102918.34
2023-02-14T10:23:30.414Z,102925.59
2023-02-14T10:26:02.853Z,102918.22
2023-02-14T10:28:35.652Z,102917.78
2023-02-14T10:31:19.102Z,102911.44
2023-02-14T10:33:57.279Z,102920.50
2023-02-14T10:36:57.508Z,102920.41
2023-02-14T10:39:44.496Z,102925.84
2023-02-14T10:42:26.549Z,102918.81
2023-02-14T10:45:03.322Z,102918.81
2023-02-14T10:47:41.529Z,102915.16
2023-02-14T10:50:20.083Z,102910.19
2023-02-14T10:52:59.308Z,102904.06
2023-02-14T10:55:41.640Z,102905.06
2023-02-14T10:58:15.487Z,102899.72
2023-02-14T11:00:54.480Z,102898.03
2023-02-14T11:03:23.687Z,102895.50
2023-02-14T11:05:53.063Z,102889.28
2023-02-14T11:08:27.178Z,102895.50
2023-02-14T11:11:00.570Z,102881.25
2023-02-14T11:13:31.535Z,102882.19
2023-02-14T11:16:05.550Z,102886.44
2023-02-14T11:18:36.162Z,102878.59
2023-02-14T11:21:08.666Z,102874.19
2023-02-14T11:23:39.889Z,102873.31
2023-02-14T11:26:15.887Z,102873.31
2023-02-14T11:28:57.528Z,102860.88
2023-02-14T11:31:31.186Z,102853.78
2023-02-14T11:34:00.582Z,102853.75
2023-02-14T11:36:31.877Z,102858.25
2023-02-14T11:39:06.378Z,102841.16
2023-02-14T11:41:56.785Z,102849.28
2023-02-14T11:44:26.988Z,102845.81
2023-02-14T11:46:56.864Z,102846.72
2023-02-14T11:49:29.601Z,102844.88
2023-02-14T11:52:00.756Z,102844.88
2023-02-14T11:54:36.069Z,102836.81
2023-02-14T11:57:07.846Z,102843.00
2023-02-14T11:59:41.955Z,102847.56
2023-02-14T12:02:26.333Z,102839.50
2023-02-14T12:04:57.852Z,102834.25
2023-02-14T12:07:31.190Z,102833.16
2023-02-14T12:10:22.689Z,102830.66
2023-02-14T12:12:56.713Z,102828.84
2023-02-14T12:15:34.407Z,102821.72
2023-02-14T12:18:16.238Z,102821.44
2023-02-14T12:20:50.447Z,102815.31
2023-02-14T12:23:26.324Z,102805.84
2023-02-14T12:26:01.452Z,102808.50
2023-02-14T12:28:38.464Z,102800.50
2023-02-14T12:31:11.757Z,102796.78
2023-02-14T12:33:40.501Z,102788.50
2023-02-14T12:36:17.638Z,102782.66
2023-02-14T12:38:57.081Z,102781.63
2023-02-14T12:41:35.648Z,102783.13
2023-02-14T12:44:09.406Z,102781.50
2023-02-14T12:47:10.554Z,102779.53
2023-02-14T12:49:58.008Z,102777.91
2023-02-14T12:52:41.226Z,102773.63
2023-02-14T12:55:40.907Z,102761.94
2023-02-14T12:58:19.300Z,102760.91
2023-02-14T13:01:04.405Z,102758.91
2023-02-14T13:03:52.250Z,102754.56
2023-02-14T13:06:29.193Z,102750.78
2023-02-14T13:09:15.460Z,102744.16
2023-02-14T13:11:58.507Z,102748.00
2023-02-14T13:14:42.352Z,102737.97
2023-02-14T13:17:21.446Z,102738.88
2023-02-14T13:20:00.666Z,102734.25
2023-02-14T13:22:32.752Z,102731.34
2023-02-14T13:25:05.157Z,102728.50
2023-02-14T13:27:40.063Z,102719.38
2023-02-14T13:30:17.471Z,102715.78
2023-02-14T13:32:48.038Z,102723.91
2023-02-14T13:35:18.386Z,102712.22
2023-02-14T13:37:51.101Z,102708.16
2023-02-14T13:40:22.389Z,102701.31
2023-02-14T13:42:57.534Z,102708.59
2023-02-14T13:45:52.058Z,102693.31
2023-02-14T13:48:22.206Z,102697.31
2023-02-14T13:50:53.257Z,102688.63
2023-02-14T13:53:39.885Z,102691.31
2023-02-14T13:56:33.531Z,102686.91
2023-02-14T13:59:05.571Z,102697.84
2023-02-14T14:01:36.901Z,102687.59
2023-02-14T14:04:08.453Z,102687.44
2023-02-14T14:07:09.472Z,102685.19
2023-02-14T14:10:02.089Z,102683.53
2023-02-14T14:12:43.604Z,102687.97
2023-02-14T14:15:22.071Z,102681.41
2023-02-14T14:18:29.133Z,102685.41
2023-02-14T14:20:57.196Z,102690.84
2023-02-14T14:23:38.490Z,102680.94
2023-02-14T14:26:37.199Z,102682.75
2023-02-14T14:29:13.465Z,102672.66
2023-02-14T14:31:43.690Z,102678.06
2023-02-14T14:34:19.011Z,102677.75
2023-02-14T14:36:47.266Z,102679.16
2023-02-14T14:39:28.022Z,102671.38
2023-02-14T14:41:56.232Z,102668.19
2023-02-14T14:44:25.761Z,102674.53
2023-02-14T14:46:59.599Z,102663.75
2023-02-14T14:49:27.773Z,102661.03
2023-02-14T14:51:57.884Z,102647.94
2023-02-14T14:54:27.554Z,102656.78
2023-02-14T14:56:59.211Z,102649.72
2023-02-14T14:59:35.058Z,102648.78
2023-02-14T15:02:08.424Z,102648.59
2023-02-14T15:04:37.013Z,102650.66
2023-02-14T15:07:20.940Z,102649.09
2023-02-14T15:09:48.889Z,102646.56
2023-02-14T15:12:39.507Z,102635.88
2023-02-14T15:15:10.140Z,102635.66
2023-02-14T15:17:41.901Z,102638.44
2023-02-14T15:20:15.808Z,102632.28
2023-02-14T15:22:46.750Z,102632.38
2023-02-14T15:25:19.535Z,102627.09
2023-02-14T15:27:48.427Z,102629.72
2023-02-14T15:30:26.480Z,102627.94
2023-02-14T15:32:56.669Z,102624.66
2023-02-14T15:35:28.661Z,102614.84
2023-02-14T15:38:01.745Z,102624.66
2023-02-14T15:40:32.269Z,102624.56
2023-02-14T15:43:14.913Z,102628.13
2023-02-14T15:45:44.900Z,102621.25
2023-02-14T15:48:18.370Z,102620.38
2023-02-14T15:50:50.033Z,102619.44
2023-02-14T15:53:32.797Z,102614.16
2023-02-14T15:56:06.585Z,102619.47
2023-02-14T15:58:36.949Z,102614.13
2023-02-14T16:01:05.279Z,102615.94
2023-02-14T16:03:37.169Z,102614.19
2023-02-14T16:06:05.966Z,102612.41
2023-02-14T16:08:35.583Z,102620.38
2023-02-14T16:11:09.107Z,102614.16
2023-02-14T16:13:38.595Z,102618.59
2023-02-14T16:16:07.714Z,102615.84
2023-02-14T16:18:39.543Z,102608.75
2023-02-14T16:21:12.837Z,102608.72
2023-02-14T16:23:41.317Z,102599.84
2023-02-14T16:26:09.884Z,102596.28
2023-02-14T16:28:38.928Z,102602.44
2023-02-14T16:31:10.550Z,102604.09
2023-02-14T16:33:41.713Z,102599.69
2023-02-14T16:36:19.603Z,102596.06
2023-02-14T16:38:48.102Z,102597.84
2023-02-14T16:41:18.624Z,102596.13
2023-02-14T16:43:47.726Z,102596.06
2023-02-14T16:46:17.469Z,102585.31
2023-02-14T16:48:47.262Z,102589.75
2023-02-14T16:51:16.366Z,102588.69
2023-02-14T16:53:44.893Z,102590.31
2023-02-14T16:56:18.865Z,102590.34
2023-02-14T16:58:47.327Z,102599.16
2023-02-14T17:01:15.418Z,102601.78
2023-02-14T17:03:44.664Z,102603.56
2023-02-14T17:06:18.073Z,102601.06
2023-02-14T17:08:47.777Z,102604.44
2023-02-14T17:11:16.364Z,102598.28
2023-02-14T17:13:46.707Z,102598.91
2023-02-14T17:16:16.505Z,102601.53
2023-02-14T17:18:47.679Z,102600.66
2023-02-14T17:21:18.359Z,102598.03
2023-02-14T17:23:46.431Z,102595.03
2023-02-14T17:26:15.003Z,102602.22
2023-02-14T17:28:43.200Z,102594.88
2023-02-14T17:31:12.154Z,102585.06
2023-02-14T17:33:40.790Z,102584.25
2023-02-14T17:36:12.069Z,102593.22
2023-02-14T17:38:43.472Z,102585.81
2023-02-14T17:41:13.435Z,102580.63
2023-02-14T17:43:42.199Z,102587.50
2023-02-14T17:46:10.944Z,102591.06
2023-02-14T17:48:39.281Z,102581.41
2023-02-14T17:51:08.916Z,102584.84
2023-02-14T17:53:37.343Z,102589.25
2023-02-14T17:56:12.937Z,102587.34
2023-02-14T17:58:41.043Z,102582.03
2023-02-14T18:01:11.305Z,102579.34
2023-02-14T18:03:40.094Z,102593.69
2023-02-14T18:06:11.176Z,102588.59
2023-02-14T18:08:41.064Z,102591.25
2023-02-14T18:11:12.758Z,102586.38
2023-02-14T18:13:41.189Z,102579.22
2023-02-14T18:16:13.721Z,102587.34
2023-02-14T18:18:42.354Z,102579.19
2023-02-14T18:21:12.522Z,102570.06
2023-02-14T18:23:40.970Z,102570.78
2023-02-14T18:26:13.621Z,102560.34
2023-02-14T18:28:42.527Z,102561.94
2023-02-14T18:31:12.496Z,102551.16
2023-02-14T18:33:42.357Z,102565.03
2023-02-14T18:36:13.012Z,102560.13
2023-02-14T18:38:42.052Z,102559.69
2023-02-14T18:41:16.497Z,102545.50
2023-02-14T18:43:45.290Z,102543.81
2023-02-14T18:46:16.270Z,102545.88
2023-02-14T18:48:44.687Z,102542.84
2023-02-14T18:51:15.643Z,102542.22
2023-02-14T18:53:45.051Z,102556.66
2023-02-14T18:56:16.541Z,102553.94
2023-02-14T18:58:47.948Z,102540.91
2023-02-14T19:01:17.863Z,102538.34
2023-02-14T19:03:46.667Z,102532.25
2023-02-14T19:06:14.702Z,102535.00
2023-02-14T19:08:43.258Z,102531.22
2023-02-14T19:11:12.564Z,102525.78
2023-02-14T19:13:45.565Z,102513.91
2023-02-14T19:16:15.086Z,102507.75
2023-02-14T19:18:43.437Z,102509.50
2023-02-14T19:21:12.500Z,102505.25
2023-02-14T19:23:40.623Z,102509.56
2023-02-14T19:26:13.310Z,102511.38
2023-02-14T19:28:43.613Z,102498.72
2023-02-14T19:31:11.596Z,102499.72
2023-02-14T19:33:40.473Z,102507.50
2023-02-14T19:36:11.563Z,102512.72
2023-02-14T19:38:40.509Z,102515.91
2023-02-14T19:41:16.521Z,102509.00
2023-02-14T19:43:47.548Z,102499.75
2023-02-14T19:46:16.985Z,102499.59
2023-02-14T19:48:46.168Z,102495.03
2023-02-14T19:51:17.251Z,102499.63
2023-02-14T19:53:46.568Z,102498.53
2023-02-14T19:56:19.058Z,102496.84
2023-02-14T19:58:49.397Z,102496.75
2023-02-14T20:01:25.585Z,102498.31
2023-02-14T20:03:55.738Z,102481.47
2023-02-14T20:06:25.525Z,102484.09
2023-02-14T20:08:53.712Z,102478.63
2023-02-14T20:11:30.187Z,102474.94
2023-02-14T20:13:59.907Z,102483.56
2023-02-14T20:16:29.969Z,102471.94
2023-02-14T20:18:58.650Z,102476.16
2023-02-14T20:21:28.312Z,102468.38
2023-02-14T20:23:58.246Z,102471.72
2023-02-14T20:26:26.181Z,102476.41
2023-02-14T20:28:54.853Z,102467.69
2023-02-14T20:31:24.177Z,102462.06
2023-02-14T20:33:52.859Z,102457.78
2023-02-14T20:36:21.655Z,102463.34
2023-02-14T20:38:49.644Z,102465.94
2023-02-14T20:41:17.541Z,102468.03
2023-02-14T20:43:45.628Z,102460.72
2023-02-14T20:46:13.764Z,102456.75
2023-02-14T20:48:43.058Z,102445.94
2023-02-14T20:51:12.397Z,102449.38
2023-02-14T20:53:41.935Z,102439.81
2023-02-14T20:56:10.710Z,102444.97
2023-02-14T20:58:39.540Z,102449.53
2023-02-14T21:01:09.149Z,102449.53
2023-02-14T21:03:37.717Z,102455.16
2023-02-14T21:06:08.990Z,102456.88
2023-02-14T21:08:37.499Z,102454.97
2023-02-14T21:11:06.748Z,102448.50
2023-02-14T21:13:35.215Z,102446.50
2023-02-14T21:16:03.816Z,102453.63
2023-02-14T21:18:31.690Z,102455.19
2023-02-14T21:21:05.836Z,102445.56
2023-02-14T21:23:35.378Z,102445.75
2023-02-14T21:26:04.076Z,102449.38
2023-02-14T21:28:32.121Z,102447.59
2023-02-14T21:31:08.107Z,102450.38
2023-02-14T21:33:36.521Z,102451.22
2023-02-14T21:36:08.402Z,102448.53
2023-02-14T21:38:38.221Z,102437.25
2023-02-14T21:41:08.539Z,102440.72
2023-02-14T21:43:37.567Z,102438.03
2023-02-14T21:46:06.551Z,102437.97
2023-02-14T21:48:52.112Z,102426.97
2023-02-14T21:51:21.309Z,102438.38
2023-02-14T21:53:50.987Z,102434.88
2023-02-14T21:56:21.017Z,102432.16
2023-02-14T21:58:50.322Z,102423.09
2023-02-14T22:01:20.534Z,102404.59
2023-02-14T22:03:49.229Z,102404.81
2023-02-14T22:06:17.341Z,102394.84
2023-02-14T22:08:45.529Z,102398.03
2023-02-14T22:11:16.662Z,102396.75
2023-02-14T22:13:45.125Z,102397.84
2023-02-14T22:16:15.591Z,102403.03
2023-02-14T22:18:44.733Z,102404.00
2023-02-14T22:21:14.929Z,102404.91
2023-02-14T22:23:43.008Z,102404.84
2023-02-14T22:26:15.759Z,102404.91
2023-02-14T22:28:46.421Z,102403.31
2023-02-14T22:31:15.616Z,102404.28
2023-02-14T22:33:44.152Z,102402.31
2023-02-14T22:36:12.434Z,102391.13
2023-02-14T22:38:41.139Z,102400.44
2023-02-14T22:41:11.414Z,102398.88
2023-02-14T22:43:41.466Z,102396.53
2023-02-14T22:46:11.577Z,102395.88
2023-02-14T22:48:40.405Z,102393.88
2023-02-14T22:51:10.947Z,102391.38
2023-02-14T22:53:40.074Z,102394.75
2023-02-14T22:56:12.825Z,102389.41
2023-02-14T22:58:42.345Z,102389.41
2023-02-14T23:01:14.707Z,102389.75
2023-02-14T23:03:42.500Z,102389.97
2023-02-14T23:06:11.131Z,102387.94
2023-02-14T23:08:40.454Z,102384.16
2023-02-14T23:11:10.437Z,102385.59
2023-02-14T23:13:55.800Z,102383.50
2023-02-14T23:16:43.325Z,102380.09
2023-02-14T23:19:31.678Z,102377.09
2023-02-14T23:22:00.879Z,102373.28
2023-02-14T23:24:28.647Z,102389.69
2023-02-14T23:26:56.634Z,102382.38
2023-02-14T23:29:24.459Z,102377.84
2023-02-14T23:31:53.868Z,102377.50
2023-02-14T23:34:21.962Z,102377.63
2023-02-14T23:36:49.719Z,102381.13
2023-02-14T23:39:17.504Z,102374.00
2023-02-14T23:41:51.154Z,102374.81
2023-02-14T23:44:20.904Z,102368.69
2023-02-14T23:46:50.189Z,102360.69
2023-02-14T23:49:19.728Z,102371.94
2023-02-14T23:51:49.928Z,102376.38
2023-02-14T23:54:19.059Z,102370.53
2023-02-14T23:56:47.807Z,102364.84
2023-02-14T23:59:16.906Z,102363.63
